createdAt,value
2023-02-21T00:02:03.946Z,28.70
2023-02-21T00:04:49.813Z,32.95
2023-02-21T00:07:37.567Z,34.28
2023-02-21T00:10:23.797Z,33.03
2023-02-21T00:13:09.706Z,26.90
2023-02-21T00:15:55.203Z,27.63
2023-02-21T00:18:40.462Z,35.70
2023-02-21T00:21:25.616Z,31.10
2023-02-21T00:24:12.344Z,34.00
2023-02-21T00:26:57.735Z,34.58
2023-02-21T00:29:43.016Z,36.13
2023-02-21T00:32:28.530Z,27.35
2023-02-21T00:35:14.373Z,39.30
2023-02-21T00:37:59.768Z,31.05
2023-02-21T00:40:46.533Z,31.02
2023-02-21T00:43:31.897Z,32.33
2023-02-21T00:46:17.370Z,29.48
2023-02-21T00:49:02.486Z,38.70
2023-02-21T00:51:48.884Z,32.53
2023-02-21T00:54:34.132Z,34.45
2023-02-21T00:57:20.736Z,40.58
2023-02-21T01:00:06.096Z,32.63
2023-02-21T01:02:51.548Z,32.58
2023-02-21T01:05:36.947Z,33.85
2023-02-21T01:08:22.153Z,30.15
2023-02-21T01:11:07.536Z,35.17
2023-02-21T01:13:54.801Z,34.72
2023-02-21T01:16:42.003Z,35.45
2023-02-21T01:19:27.440Z,35.63
2023-02-21T01:22:12.806Z,36.13
2023-02-21T01:24:58.113Z,36.47
2023-02-21T01:27:43.561Z,37.08
2023-02-21T01:30:30.613Z,37.67
2023-02-21T01:33:16.313Z,33.92
2023-02-21T01:36:01.882Z,35.53
2023-02-21T01:38:47.083Z,34.50
2023-02-21T01:41:32.464Z,27.25
2023-02-21T01:44:20.410Z,33.38
2023-02-21T01:47:07.355Z,32.92
2023-02-21T01:49:55.243Z,30.85
2023-02-21T01:52:41.637Z,37.25
2023-02-21T01:55:27.869Z,33.92
2023-02-21T01:58:14.655Z,33.80
2023-02-21T02:01:01.403Z,29.00
2023-02-21T02:03:49.490Z,34.53
2023-02-21T02:06:36.258Z,33.33
2023-02-21T02:09:33.189Z,34.15
2023-02-21T02:12:25.037Z,37.08
2023-02-21T02:15:17.192Z,32.58
2023-02-21T02:18:02.681Z,32.05
2023-02-21T02:21:17.604Z,31.35
2023-02-21T02:24:27.200Z,33.22
2023-02-21T02:27:38.926Z,29.50
2023-02-21T02:30:50.409Z,38.65
2023-02-21T02:34:09.481Z,32.63
2023-02-21T02:36:43.431Z,40.08
2023-02-21T02:39:23.096Z,35.95
2023-02-21T02:41:59.079Z,40.55
2023-02-21T02:44:32.758Z,37.60
2023-02-21T02:47:03.150Z,39.25
2023-02-21T02:49:34.866Z,41.60
2023-02-21T02:52:07.034Z,35.55
2023-02-21T02:54:35.290Z,40.85
2023-02-21T02:57:10.391Z,41.88
2023-02-21T02:59:41.843Z,50.22
2023-02-21T03:02:26.646Z,45.88
2023-02-21T03:05:09.196Z,50.13
2023-02-21T03:07:53.325Z,45.38
2023-02-21T03:10:28.622Z,40.15
2023-02-21T03:13:04.847Z,47.03
2023-02-21T03:15:39.891Z,37.28
2023-02-21T03:18:12.911Z,48.72
2023-02-21T03:20:43.124Z,37.17
2023-02-21T03:23:15.327Z,41.83
2023-02-21T03:25:44.981Z,39.22
2023-02-21T03:28:14.318Z,44.13
2023-02-21T03:30:47.695Z,42.75
2023-02-21T03:33:15.733Z,46.17
2023-02-21T03:35:43.737Z,37.40
2023-02-21T03:38:13.963Z,42.45
2023-02-21T03:40:42.286Z,43.47
2023-02-21T03:43:10.434Z,42.08
2023-02-21T03:45:50.719Z,41.95
2023-02-21T03:48:31.049Z,42.83
2023-02-21T03:51:03.766Z,42.00
2023-02-21T03:53:38.291Z,41.85
2023-02-21T03:56:08.392Z,47.53
2023-02-21T03:58:55.551Z,44.72
2023-02-21T04:01:24.364Z,47.08
2023-02-21T04:03:53.108Z,45.55
2023-02-21T04:06:21.965Z,46.88
2023-02-21T04:08:52.348Z,40.80
2023-02-21T04:11:22.175Z,38.58
2023-02-21T04:13:52.311Z,40.70
2023-02-21T04:16:20.419Z,41.95
2023-02-21T04:18:50.195Z,41.20
2023-02-21T04:21:18.883Z,55.42
2023-02-21T04:23:47.342Z,45.22
2023-02-21T04:26:18.307Z,49.55
2023-02-21T04:28:51.326Z,47.90
2023-02-21T04:31:20.240Z,46.47
2023-02-21T04:33:48.802Z,44.42
2023-02-21T04:36:23.053Z,44.20
2023-02-21T04:38:51.953Z,47.17
2023-02-21T04:41:21.651Z,42.35
2023-02-21T04:43:49.639Z,40.83
2023-02-21T04:46:19.009Z,41.67
2023-02-21T04:48:49.076Z,47.03
2023-02-21T04:51:19.994Z,45.58
2023-02-21T04:53:49.407Z,46.38
2023-02-21T04:56:20.931Z,51.13
2023-02-21T04:58:50.645Z,40.97
2023-02-21T05:01:20.913Z,41.58
2023-02-21T05:03:49.230Z,37.17
2023-02-21T05:06:20.717Z,41.67
2023-02-21T05:08:48.589Z,36.67
2023-02-21T05:11:17.059Z,49.28
2023-02-21T05:13:45.928Z,44.90
2023-02-21T05:16:15.339Z,34.60
2023-02-21T05:18:43.621Z,39.97
2023-02-21T05:21:11.943Z,34.80
2023-02-21T05:23:41.091Z,40.45
2023-02-21T05:26:12.657Z,38.13
2023-02-21T05:28:42.198Z,34.65
2023-02-21T05:31:10.242Z,37.55
2023-02-21T05:33:39.483Z,36.83
2023-02-21T05:36:08.071Z,35.00
2023-02-21T05:38:45.675Z,42.22
2023-02-21T05:41:13.916Z,30.92
2023-02-21T05:43:44.561Z,41.85
2023-02-21T05:46:21.175Z,36.33
2023-02-21T05:48:50.788Z,43.95
2023-02-21T05:51:19.581Z,33.50
2023-02-21T05:53:47.686Z,35.95
2023-02-21T05:56:16.274Z,29.40
2023-02-21T05:58:44.467Z,33.65
2023-02-21T06:01:12.626Z,35.60
2023-02-21T06:03:40.753Z,32.10
2023-02-21T06:06:10.121Z,36.78
2023-02-21T06:08:44.681Z,31.80
2023-02-21T06:11:13.260Z,36.03
2023-02-21T06:13:41.953Z,34.65
2023-02-21T06:16:10.015Z,35.88
2023-02-21T06:18:37.954Z,37.92
2023-02-21T06:21:06.256Z,33.97
2023-02-21T06:23:35.477Z,40.53
2023-02-21T06:26:03.385Z,36.70
2023-02-21T06:28:31.836Z,34.75
2023-02-21T06:30:59.718Z,32.75
2023-02-21T06:33:27.783Z,36.00
2023-02-21T06:35:55.753Z,38.05
2023-02-21T06:38:23.997Z,35.22
2023-02-21T06:40:53.216Z,32.30
2023-02-21T06:43:21.186Z,33.58
2023-02-21T06:45:49.077Z,34.30
2023-02-21T06:48:17.387Z,37.67
2023-02-21T06:50:45.822Z,31.90
2023-02-21T06:53:13.705Z,31.95
2023-02-21T06:55:41.728Z,32.33
2023-02-21T06:58:11.037Z,37.58
2023-02-21T07:00:38.918Z,33.55
2023-02-21T07:03:07.167Z,32.38
2023-02-21T07:05:36.812Z,33.67
2023-02-21T07:08:05.135Z,30.20
2023-02-21T07:10:33.041Z,32.72
2023-02-21T07:13:00.905Z,33.38
2023-02-21T07:15:30.240Z,35.05
2023-02-21T07:17:58.294Z,41.17
2023-02-21T07:20:26.198Z,34.70
2023-02-21T07:22:54.317Z,32.90
2023-02-21T07:25:23.519Z,39.53
2023-02-21T07:27:52.748Z,28.40
2023-02-21T07:30:20.903Z,35.00
2023-02-21T07:32:50.303Z,28.52
2023-02-21T07:35:18.286Z,40.50
2023-02-21T07:37:46.170Z,32.17
2023-02-21T07:40:14.059Z,26.63
2023-02-21T07:42:43.964Z,34.90
2023-02-21T07:45:12.231Z,37.45
2023-02-21T07:47:40.165Z,35.88
2023-02-21T07:50:09.884Z,34.13
2023-02-21T07:52:37.933Z,35.80
2023-02-21T07:55:06.623Z,34.60
2023-02-21T07:57:34.540Z,115.38
2023-02-21T08:00:02.535Z,27.65
2023-02-21T08:02:40.996Z,35.30
2023-02-21T08:05:10.860Z,29.90
2023-02-21T08:07:38.768Z,36.88
2023-02-21T08:10:07.426Z,33.72
2023-02-21T08:12:35.308Z,32.33
2023-02-21T08:15:03.262Z,36.20
2023-02-21T08:17:31.144Z,32.67
2023-02-21T08:19:59.174Z,32.72
2023-02-21T08:22:28.532Z,37.60
2023-02-21T08:24:56.679Z,32.83
2023-02-21T08:27:24.560Z,40.75
2023-02-21T08:29:53.635Z,32.05
2023-02-21T08:32:21.798Z,34.30
2023-02-21T08:34:50.833Z,32.10
2023-02-21T08:37:19.868Z,28.23
2023-02-21T08:39:52.032Z,29.40
2023-02-21T08:42:20.383Z,33.20
2023-02-21T08:44:48.541Z,35.10
2023-02-21T08:47:18.210Z,27.27
2023-02-21T08:49:47.339Z,33.97
2023-02-21T08:52:17.238Z,32.80
2023-02-21T08:54:45.756Z,28.50
2023-02-21T08:57:15.718Z,29.92
2023-02-21T08:59:45.127Z,32.88
2023-02-21T09:02:17.230Z,32.70
2023-02-21T09:04:46.030Z,28.77
2023-02-21T09:07:15.017Z,29.63
2023-02-21T09:09:43.051Z,31.13
2023-02-21T09:12:11.572Z,30.08
2023-02-21T09:14:42.672Z,27.75
2023-02-21T09:17:13.194Z,28.52
2023-02-21T09:19:41.542Z,28.40
2023-02-21T09:22:10.680Z,31.15
2023-02-21T09:24:40.562Z,32.35
2023-02-21T09:27:08.573Z,29.83
2023-02-21T09:29:45.822Z,28.25
2023-02-21T09:32:15.856Z,31.63
2023-02-21T09:34:43.782Z,28.98
2023-02-21T09:37:11.761Z,29.05
2023-02-21T09:39:40.347Z,28.73
2023-02-21T09:42:08.487Z,24.67
2023-02-21T09:44:36.648Z,34.35
2023-02-21T09:47:07.139Z,29.02
2023-02-21T09:49:40.134Z,28.52
2023-02-21T09:52:16.947Z,28.25
2023-02-21T09:54:48.352Z,28.10
2023-02-21T09:57:19.080Z,27.30
2023-02-21T09:59:47.361Z,27.48
2023-02-21T10:02:38.640Z,26.45
2023-02-21T10:05:19.387Z,26.45
2023-02-21T10:07:55.584Z,25.40
2023-02-21T10:10:32.686Z,28.73
2023-02-21T10:13:07.624Z,26.77
2023-02-21T10:15:44.994Z,27.17
2023-02-21T10:18:23.135Z,26.25
2023-02-21T10:20:54.690Z,24.90
2023-02-21T10:23:28.206Z,26.45
2023-02-21T10:28:27.492Z,24.33
2023-02-21T10:30:59.897Z,24.75
2023-02-21T10:33:28.246Z,28.85
2023-02-21T10:35:57.539Z,23.95
2023-02-21T10:38:27.352Z,29.05
2023-02-21T10:40:58.163Z,25.48
2023-02-21T10:43:31.799Z,23.30
2023-02-21T10:46:03.941Z,22.73
2023-02-21T10:48:37.326Z,20.73
2023-02-21T10:51:12.417Z,24.95
2023-02-21T10:53:42.090Z,21.15
2023-02-21T10:56:29.303Z,23.88
2023-02-21T10:59:00.718Z,20.55
2023-02-21T11:01:43.964Z,23.67
2023-02-21T11:04:28.142Z,25.48
2023-02-21T11:06:59.348Z,22.58
2023-02-21T11:09:37.813Z,31.58
2023-02-21T11:12:17.469Z,26.50
2023-02-21T11:15:03.813Z,21.33
2023-02-21T11:17:33.240Z,21.92
2023-02-21T11:20:07.922Z,28.48
2023-02-21T11:22:42.685Z,23.13
2023-02-21T11:25:22.089Z,24.70
2023-02-21T11:28:02.205Z,22.67
2023-02-21T11:30:32.202Z,24.75
2023-02-21T11:33:01.949Z,24.48
2023-02-21T11:35:33.385Z,20.42
2023-02-21T11:38:04.749Z,27.77
2023-02-21T11:40:41.752Z,26.58
2023-02-21T11:43:22.796Z,17.42
2023-02-21T11:46:02.506Z,20.25
2023-02-21T11:48:36.799Z,21.63
2023-02-21T11:51:09.608Z,22.15
2023-02-21T11:53:43.498Z,21.08
2023-02-21T11:56:21.304Z,18.85
2023-02-21T11:58:59.660Z,18.38
2023-02-21T12:01:34.030Z,15.88
2023-02-21T12:04:29.843Z,15.55
2023-02-21T12:07:09.649Z,17.27
2023-02-21T12:09:48.102Z,18.67
2023-02-21T12:12:42.474Z,17.08
2023-02-21T12:15:22.584Z,17.50
2023-02-21T12:18:06.806Z,15.43
2023-02-21T12:20:52.114Z,15.80
2023-02-21T12:23:28.419Z,15.93
2023-02-21T12:26:11.962Z,15.40
2023-02-21T12:28:54.889Z,12.38
2023-02-21T12:31:40.517Z,15.63
2023-02-21T12:34:22.624Z,11.70
2023-02-21T12:37:06.686Z,11.02
2023-02-21T12:39:49.311Z,14.75
2023-02-21T12:43:04.601Z,14.55
2023-02-21T12:45:47.745Z,11.48
2023-02-21T12:48:22.249Z,14.15
2023-02-21T12:50:53.913Z,12.65
2023-02-21T12:53:27.433Z,11.25
2023-02-21T12:56:04.823Z,12.70
2023-02-21T12:58:39.169Z,15.27
2023-02-21T13:01:15.989Z,13.88
2023-02-21T13:03:55.264Z,12.20
2023-02-21T13:06:31.427Z,13.77
2023-02-21T13:09:21.996Z,16.35
2023-02-21T13:11:58.823Z,11.02
2023-02-21T13:14:31.630Z,10.15
2023-02-21T13:17:01.371Z,13.40
2023-02-21T13:19:38.082Z,11.30
2023-02-21T13:22:48.182Z,17.30
2023-02-21T13:25:50.597Z,11.13
2023-02-21T13:28:20.362Z,15.40
2023-02-21T13:30:52.504Z,12.35
2023-02-21T13:33:29.643Z,12.85
2023-02-21T13:36:00.007Z,14.88
2023-02-21T13:38:30.554Z,15.98
2023-02-21T13:41:09.894Z,14.15
2023-02-21T13:43:46.246Z,15.18
2023-02-21T13:46:26.506Z,14.93
2023-02-21T13:49:31.769Z,15.35
2023-02-21T13:55:06.126Z,13.20
2023-02-21T13:57:36.110Z,19.83
2023-02-21T14:00:33.361Z,15.55
2023-02-21T14:03:02.377Z,15.98
2023-02-21T14:05:50.447Z,16.45
2023-02-21T14:08:20.521Z,16.20
2023-02-21T14:10:49.872Z,14.10
2023-02-21T14:13:24.793Z,15.30
2023-02-21T14:15:58.195Z,16.20
2023-02-21T14:18:28.036Z,16.73
2023-02-21T14:20:56.859Z,21.05
2023-02-21T14:23:25.562Z,18.08
2023-02-21T14:25:59.686Z,17.63
2023-02-21T14:28:46.278Z,18.55
2023-02-21T14:31:15.763Z,16.83
2023-02-21T14:33:44.255Z,19.08
2023-02-21T14:36:14.993Z,19.80
